Baileyville, Maine
Current Conditions -  °F | °C
As of 2:35 AM on Thursday 23 Oct 2014 (Local Time) from CYFC Reporting Station
Light Rain Light Rain  
Wind Chill: 39°   Ceiling: 1500
Heat Index: 46°   Visibility: 9mi
Dew Point: 45°   Wind: 18mph
Humidity: 93%   Direction: 40°NE
Pressure: 30.18"   Gusts: 26mph
Location:  45.15°N, 67.41°W
Report Text: CYFC 230635Z AUTO 04016G23KT 9SM -RA OVC015 08/07 A3018 RMK SLP219
Loading
Personal Weather Stations






























Interactive Weather Map
Tropical Storm Tracking
New forecast layout! Learn more

10-Day Weather Forecast

Advertisements
Track Severe Weather on mobile